Time;durP1;ratioP1;P1;durP2;ratioP2;P2;SDS_P1;SDS_P2;PMS_P1;PMS_P2;Temp;Humidity;BMP_temperature;BMP_pressure;BME280_temperature;BME280_humidity;BME280_pressure;Samples;Min_cycle;Max_cycle;Signal;HPM_P1;HPM_P2
2021/11/28 00:00:42;;;;;;;1.48;0.10;;;21.00;42.90;;;;;;5083081;28;20126;-47
2021/11/28 00:03:10;;;;;;;1.47;0.10;;;20.90;42.70;;;;;;5084620;28;20059;-47
2021/11/28 00:05:38;;;;;;;1.50;0.20;;;20.90;43.00;;;;;;5085574;28;20115;-47
2021/11/28 00:08:14;;;;;;;1.77;0.10;;;20.90;42.90;;;;;;5085335;28;20047;-45
2021/11/28 00:10:50;;;;;;;0.50;0.20;;;20.80;43.10;;;;;;5084221;28;21123;-48
2021/11/28 00:13:33;;;;;;;0.98;0.10;;;20.80;43.10;;;;;;5085912;28;20044;-51
2021/11/28 00:16:02;;;;;;;0.93;0.10;;;20.70;43.40;;;;;;5087569;28;20063;-46
2021/11/28 00:18:30;;;;;;;1.13;0.10;;;20.60;43.40;;;;;;5084686;28;20032;-47
2021/11/28 00:20:57;;;;;;;0.85;0.85;;;20.60;43.50;;;;;;5074370;28;20534;-47
2021/11/28 00:23:24;;;;;;;1.73;0.57;;;20.50;43.90;;;;;;5084728;28;20059;-49
2021/11/28 00:25:54;;;;;;;0.57;0.10;;;20.50;43.60;;;;;;5088775;28;20365;-47
2021/11/28 00:28:21;;;;;;;0.32;0.20;;;20.40;44.40;;;;;;5084818;28;20465;-51
2021/11/28 00:30:48;;;;;;;0.40;0.13;;;20.40;43.80;;;;;;5086917;28;20413;-50
2021/11/28 00:33:16;;;;;;;0.68;0.00;;;20.40;44.50;;;;;;5084495;28;20036;-45
2021/11/28 00:35:44;;;;;;;4.07;0.10;;;20.30;44.00;;;;;;5075430;28;20327;-48
2021/11/28 00:38:10;;;;;;;2.22;0.10;;;20.20;44.50;;;;;;5083759;28;20044;-45
2021/11/28 00:40:38;;;;;;;0.73;0.10;;;20.20;44.20;;;;;;5085258;28;20079;-46
2021/11/28 00:43:06;;;;;;;0.20;0.20;;;20.20;44.50;;;;;;5087311;28;20085;-49
2021/11/28 00:45:33;;;;;;;0.52;0.10;;;20.20;44.30;;;;;;5088588;28;20044;-51
2021/11/28 00:48:00;;;;;;;2.00;0.10;;;20.10;43.90;;;;;;5089815;28;20039;-46
2021/11/28 00:50:39;;;;;;;1.13;0.10;;;20.10;43.80;;;;;;5096010;28;20050;-46
2021/11/28 00:53:07;;;;;;;0.40;0.10;;;20.00;43.80;;;;;;5087302;28;20130;-44
2021/11/28 00:55:34;;;;;;;1.15;0.10;;;19.90;43.80;;;;;;5084390;28;20040;-46
2021/11/28 00:58:01;;;;;;;0.90;0.10;;;19.80;43.80;;;;;;5099149;28;20131;-50
2021/11/28 01:00:32;;;;;;;1.00;0.10;;;19.70;43.80;;;;;;5075918;28;20051;-46
2021/11/28 01:02:59;;;;;;;1.90;0.20;;;19.70;44.00;;;;;;5076283;28;20119;-47
2021/11/28 01:05:26;;;;;;;2.65;0.00;;;19.60;44.10;;;;;;5079895;28;20148;-45
2021/11/28 01:07:53;;;;;;;2.30;0.10;;;19.50;44.20;;;;;;5079550;28;20711;-50
2021/11/28 01:10:20;;;;;;;0.20;0.10;;;19.40;44.30;;;;;;5088003;28;20038;-49
2021/11/28 01:12:47;;;;;;;0.40;0.10;;;19.40;44.50;;;;;;5100094;28;20043;-47
2021/11/28 01:15:15;;;;;;;1.58;0.10;;;19.30;44.70;;;;;;5089783;28;20044;-44
2021/11/28 01:17:43;;;;;;;0.90;0.13;;;19.20;44.70;;;;;;5093172;28;20044;-49
2021/11/28 01:20:11;;;;;;;0.32;0.10;;;19.20;44.80;;;;;;5084246;28;20080;-47
2021/11/28 01:22:39;;;;;;;1.05;0.10;;;19.10;44.90;;;;;;5099183;28;20041;-50
2021/11/28 01:25:08;;;;;;;2.22;0.10;;;19.00;45.10;;;;;;5090964;28;20404;-46
2021/11/28 01:27:37;;;;;;;2.70;0.22;;;18.90;45.20;;;;;;5108797;27;20048;-49
2021/11/28 01:30:06;;;;;;;4.47;0.03;;;18.90;45.30;;;;;;5094490;28;20495;-43
2021/11/28 01:32:35;;;;;;;0.10;0.00;;;18.90;45.40;;;;;;5083761;28;20130;-50
2021/11/28 01:35:06;;;;;;;2.75;0.20;;;18.80;45.60;;;;;;5073144;28;20043;-47
2021/11/28 01:37:34;;;;;;;2.50;0.40;;;18.70;45.70;;;;;;5089955;28;20047;-45
2021/11/28 01:40:05;;;;;;;0.68;0.00;;;18.70;45.80;;;;;;5102667;28;20050;-48
2021/11/28 01:42:38;;;;;;;0.40;0.32;;;18.70;45.90;;;;;;5076506;28;20063;-50
2021/11/28 01:45:07;;;;;;;3.53;0.10;;;18.60;46.10;;;;;;5088880;28;20048;-45
2021/11/28 01:47:34;;;;;;;0.20;0.10;;;18.60;46.30;;;;;;5073778;28;20048;-47
2021/11/28 01:50:02;;;;;;;0.98;0.00;;;18.50;47.00;;;;;;5085328;28;20059;-46
2021/11/28 01:52:34;;;;;;;0.50;0.10;;;18.50;46.40;;;;;;5074899;28;20122;-44
2021/11/28 01:55:04;;;;;;;3.22;1.98;;;18.50;46.30;;;;;;5080177;28;20111;-48
2021/11/28 01:57:32;;;;;;;1.38;0.10;;;18.40;46.20;;;;;;5096587;28;20039;-47
2021/11/28 02:00:00;;;;;;;1.85;0.10;;;18.40;46.10;;;;;;5082040;28;20051;-50
2021/11/28 02:02:29;;;;;;;0.13;0.10;;;18.30;46.10;;;;;;5072388;28;20052;-49
2021/11/28 02:04:58;;;;;;;1.02;0.10;;;18.30;46.20;;;;;;5070302;28;20039;-48
2021/11/28 02:07:25;;;;;;;0.50;0.10;;;18.30;46.10;;;;;;5070704;28;20719;-45
2021/11/28 02:09:53;;;;;;;1.20;0.05;;;18.20;46.10;;;;;;5078768;28;20047;-51
2021/11/28 02:12:23;;;;;;;2.13;0.10;;;18.20;46.00;;;;;;5079105;28;20083;-46
2021/11/28 02:14:50;;;;;;;0.73;0.00;;;18.20;46.20;;;;;;5090366;28;20078;-49
2021/11/28 02:17:18;;;;;;;2.10;0.10;;;18.10;46.10;;;;;;5077842;28;20043;-49
2021/11/28 02:19:45;;;;;;;2.25;0.10;;;18.10;46.20;;;;;;5066295;28;20044;-46
2021/11/28 02:22:14;;;;;;;1.83;0.25;;;18.10;46.40;;;;;;5111250;27;20457;-49
2021/11/28 02:24:41;;;;;;;1.45;0.00;;;18.00;46.50;;;;;;5095233;28;20047;-45
2021/11/28 02:27:08;;;;;;;1.55;0.10;;;18.00;46.60;;;;;;5093535;28;20051;-47
2021/11/28 02:29:39;;;;;;;0.35;0.00;;;18.00;46.50;;;;;;5091406;28;20438;-49
2021/11/28 02:32:07;;;;;;;0.52;0.20;;;18.00;46.60;;;;;;5072721;28;20042;-47
2021/11/28 02:34:35;;;;;;;0.10;0.00;;;18.00;46.50;;;;;;5085283;28;20058;-49
2021/11/28 02:37:03;;;;;;;0.95;0.15;;;17.90;46.60;;;;;;5094688;28;20043;-51
2021/11/28 02:39:34;;;;;;;2.15;0.10;;;17.90;46.50;;;;;;5080014;28;20101;-51
2021/11/28 02:42:01;;;;;;;0.45;0.45;;;17.90;46.70;;;;;;5079983;28;20039;-50
2021/11/28 02:44:30;;;;;;;1.00;0.00;;;17.80;46.60;;;;;;5082856;28;20049;-46
2021/11/28 02:46:57;;;;;;;1.27;0.22;;;17.80;46.60;;;;;;5085715;28;20036;-45
2021/11/28 02:49:24;;;;;;;0.85;0.10;;;17.80;46.60;;;;;;5078164;28;20044;-49
2021/11/28 02:51:51;;;;;;;1.88;0.10;;;17.80;46.60;;;;;;5098253;28;20042;-46
2021/11/28 02:54:19;;;;;;;0.38;0.10;;;17.80;46.60;;;;;;5091525;28;20071;-49
2021/11/28 02:56:48;;;;;;;1.27;0.10;;;17.80;46.60;;;;;;5091154;28;20036;-46
2021/11/28 02:59:16;;;;;;;1.40;0.00;;;17.70;46.50;;;;;;5073202;28;20407;-50
2021/11/28 03:01:43;;;;;;;0.00;0.00;;;17.70;46.50;;;;;;5069024;28;20427;-49
2021/11/28 03:04:30;;;;;;;0.05;0.00;;;17.70;46.60;;;;;;5084582;28;20078;-45
2021/11/28 03:06:57;;;;;;;3.38;0.08;;;17.60;46.60;;;;;;5102738;28;20411;-46
2021/11/28 03:09:24;;;;;;;1.08;0.03;;;17.60;46.60;;;;;;5075714;28;20067;-44
2021/11/28 03:11:53;;;;;;;0.55;0.00;;;17.60;46.70;;;;;;5077632;28;20036;-46
2021/11/28 03:14:20;;;;;;;0.10;0.00;;;17.60;46.90;;;;;;5069779;28;20530;-47
2021/11/28 03:16:47;;;;;;;0.55;0.00;;;17.60;47.00;;;;;;5059941;28;20124;-47
2021/11/28 03:19:14;;;;;;;0.30;0.08;;;17.60;46.90;;;;;;5072993;28;20051;-46
2021/11/28 03:21:43;;;;;;;2.00;0.05;;;17.60;47.00;;;;;;5088561;28;20119;-47
2021/11/28 03:24:11;;;;;;;2.38;0.03;;;17.50;47.00;;;;;;5096790;28;20039;-47
2021/11/28 03:26:39;;;;;;;0.82;0.03;;;17.50;47.10;;;;;;5081969;28;20059;-50
2021/11/28 03:29:10;;;;;;;3.85;0.00;;;17.50;47.00;;;;;;5062360;28;20512;-47
2021/11/28 03:31:58;;;;;;;1.27;0.00;;;17.50;47.00;;;;;;5082189;28;20523;-47
2021/11/28 03:34:34;;;;;;;0.30;0.00;;;17.40;46.90;;;;;;5100916;28;20496;-48
2021/11/28 03:37:03;;;;;;;0.13;0.00;;;17.40;46.90;;;;;;5092473;28;20109;-47
2021/11/28 03:39:31;;;;;;;0.73;0.00;;;17.40;46.90;;;;;;5077160;28;20528;-49
2021/11/28 03:42:01;;;;;;;3.58;1.08;;;17.40;46.90;;;;;;5090403;28;20048;-47
2021/11/28 03:44:31;;;;;;;0.00;0.00;;;17.40;46.90;;;;;;5082121;28;20039;-51
2021/11/28 03:47:06;;;;;;;0.30;0.00;;;17.40;46.80;;;;;;5068370;28;20070;-48
2021/11/28 03:49:33;;;;;;;0.00;0.00;;;17.40;46.80;;;;;;5072389;28;20043;-50
2021/11/28 03:52:03;;;;;;;0.20;0.00;;;17.30;46.70;;;;;;5094024;28;20055;-47
2021/11/28 03:54:30;;;;;;;0.20;0.00;;;17.30;46.80;;;;;;5071630;28;20043;-49
2021/11/28 03:56:57;;;;;;;0.40;0.00;;;17.30;46.70;;;;;;5090437;28;20044;-47
2021/11/28 03:59:27;;;;;;;0.22;0.00;;;17.30;47.30;;;;;;5092224;28;20048;-51
2021/11/28 04:01:55;;;;;;;0.10;0.00;;;17.30;46.70;;;;;;5080318;28;20041;-51
2021/11/28 04:04:23;;;;;;;3.40;0.00;;;17.30;46.80;;;;;;5070593;28;20147;-48
2021/11/28 04:07:10;;;;;;;0.00;0.00;;;17.30;47.00;;;;;;5074764;28;20044;-49
2021/11/28 04:09:39;;;;;;;0.05;0.00;;;17.20;47.00;;;;;;5082895;28;20086;-45
2021/11/28 04:12:09;;;;;;;0.93;0.00;;;17.20;47.10;;;;;;5076510;28;20044;-50
2021/11/28 04:14:38;;;;;;;1.45;0.00;;;17.20;47.10;;;;;;5089383;28;20067;-46
2021/11/28 04:17:08;;;;;;;0.28;0.00;;;17.20;47.10;;;;;;5067283;28;20090;-46
2021/11/28 04:19:39;;;;;;;0.57;0.00;;;17.20;47.10;;;;;;5081775;28;20120;-47
2021/11/28 04:22:07;;;;;;;1.45;0.00;;;17.20;47.10;;;;;;5092672;28;20043;-45
2021/11/28 04:24:34;;;;;;;3.20;0.00;;;17.20;47.10;;;;;;5078204;28;20401;-50
2021/11/28 04:27:03;;;;;;;0.80;0.52;;;17.20;47.10;;;;;;5077663;28;20082;-45
2021/11/28 04:29:30;;;;;;;1.20;0.10;;;17.20;47.20;;;;;;5080947;28;20599;-48
2021/11/28 04:31:58;;;;;;;0.20;0.00;;;17.20;47.20;;;;;;5071352;28;20119;-45
2021/11/28 04:34:26;;;;;;;0.00;0.00;;;17.20;47.20;;;;;;5085057;28;20135;-45
2021/11/28 04:36:53;;;;;;;4.03;0.10;;;17.20;47.20;;;;;;5100509;28;20073;-44
2021/11/28 04:39:24;;;;;;;0.25;0.00;;;17.20;47.10;;;;;;5078278;28;20048;-46
2021/11/28 04:41:51;;;;;;;0.40;0.00;;;17.20;47.30;;;;;;5077723;28;20040;-47
2021/11/28 04:44:18;;;;;;;0.10;0.10;;;17.20;47.30;;;;;;5077851;28;20051;-46
2021/11/28 04:46:46;;;;;;;0.50;0.00;;;17.10;47.20;;;;;;5062777;28;20625;-48
2021/11/28 04:49:13;;;;;;;0.47;0.15;;;17.10;47.20;;;;;;5088154;28;20051;-45
2021/11/28 04:51:42;;;;;;;0.10;0.00;;;17.10;47.20;;;;;;5095143;28;20039;-48
2021/11/28 04:54:12;;;;;;;0.63;0.00;;;17.20;47.10;;;;;;5060841;28;20143;-50
2021/11/28 04:56:39;;;;;;;0.65;0.15;;;17.10;47.20;;;;;;5071306;28;20083;-45
2021/11/28 04:59:06;;;;;;;0.10;0.10;;;17.10;47.20;;;;;;5050244;28;20036;-49
2021/11/28 05:01:40;;;;;;;2.13;0.00;;;17.10;47.20;;;;;;5080505;28;20044;-47
2021/11/28 05:04:16;;;;;;;0.57;0.00;;;17.10;47.20;;;;;;5091927;28;20649;-46
2021/11/28 05:06:47;;;;;;;3.40;0.17;;;17.10;47.20;;;;;;5085507;28;20139;-49
2021/11/28 05:09:27;;;;;;;0.15;0.00;;;17.10;47.20;;;;;;5078761;28;20067;-48
2021/11/28 05:11:55;;;;;;;0.10;0.00;;;17.00;47.10;;;;;;5078912;28;20059;-47
2021/11/28 05:14:23;;;;;;;0.52;0.00;;;17.00;47.20;;;;;;5068336;28;20040;-45
2021/11/28 05:16:50;;;;;;;1.65;0.43;;;17.00;47.20;;;;;;5069981;28;20042;-46
2021/11/28 05:19:38;;;;;;;0.38;0.00;;;17.10;47.20;;;;;;5081221;28;20395;-45
2021/11/28 05:22:19;;;;;;;1.25;0.45;;;17.00;47.20;;;;;;5087459;28;20063;-46
2021/11/28 05:24:50;;;;;;;1.17;0.00;;;17.00;47.30;;;;;;5074371;28;20659;-49
2021/11/28 05:27:17;;;;;;;1.20;0.00;;;17.00;47.30;;;;;;5078631;28;20044;-47
2021/11/28 05:29:45;;;;;;;1.15;0.00;;;17.00;47.20;;;;;;5079502;28;20044;-46
2021/11/28 05:32:12;;;;;;;1.80;0.10;;;17.00;47.20;;;;;;5063524;28;20052;-52
2021/11/28 05:35:00;;;;;;;1.65;0.00;;;17.00;47.20;;;;;;5065121;28;20521;-46
2021/11/28 05:37:47;;;;;;;0.95;0.00;;;16.90;47.80;;;;;;5081192;28;20394;-47
2021/11/28 05:40:19;;;;;;;2.50;0.00;;;16.90;47.30;;;;;;5070809;28;20048;-48
2021/11/28 05:42:49;;;;;;;2.75;0.00;;;16.90;47.30;;;;;;5111338;28;20501;-51
2021/11/28 05:45:17;;;;;;;0.35;0.10;;;16.90;47.40;;;;;;5078417;28;20058;-50
2021/11/28 05:47:57;;;;;;;0.35;0.00;;;16.90;47.30;;;;;;5080648;28;20128;-51
2021/11/28 05:50:48;;;;;;;5.28;0.00;;;16.90;47.40;;;;;;5071330;28;20793;-48
2021/11/28 05:53:17;;;;;;;0.10;0.00;;;16.90;47.40;;;;;;5065626;28;20516;-45
2021/11/28 05:55:45;;;;;;;0.10;0.00;;;16.90;47.40;;;;;;5061772;28;20407;-47
2021/11/28 05:58:13;;;;;;;0.30;0.00;;;16.90;47.50;;;;;;5087146;28;20040;-46
2021/11/28 06:00:41;;;;;;;0.55;0.00;;;16.90;47.50;;;;;;5083187;28;20040;-48
2021/11/28 06:03:08;;;;;;;1.63;0.05;;;16.90;47.50;;;;;;5085425;28;20032;-46
2021/11/28 06:05:39;;;;;;;0.10;0.00;;;16.90;47.50;;;;;;5078804;28;20754;-50
2021/11/28 06:08:42;;;;;;;0.85;0.00;;;16.90;47.50;;;;;;5069775;28;20403;-49
2021/11/28 06:11:11;;;;;;;0.10;0.00;;;16.90;47.70;;;;;;5081195;28;20051;-45
2021/11/28 06:13:38;;;;;;;1.95;0.00;;;16.90;47.70;;;;;;5076507;28;20539;-46
2021/11/28 06:16:31;;;;;;;0.00;0.00;;;16.90;47.70;;;;;;5087083;28;20047;-48
2021/11/28 06:19:16;;;;;;;0.30;0.08;;;16.90;47.70;;;;;;5101162;28;20084;-51
2021/11/28 06:22:02;;;;;;;0.10;0.00;;;16.90;47.80;;;;;;5092266;28;20097;-49
2021/11/28 06:24:38;;;;;;;0.57;0.30;;;16.90;47.80;;;;;;5075198;28;20048;-48
2021/11/28 06:27:10;;;;;;;0.77;0.10;;;16.90;47.80;;;;;;5079877;28;20439;-45
2021/11/28 06:29:38;;;;;;;1.95;0.10;;;16.90;47.80;;;;;;5081813;28;20035;-45
2021/11/28 06:32:07;;;;;;;1.38;0.10;;;16.90;47.80;;;;;;5062572;28;20578;-45
2021/11/28 06:34:53;;;;;;;2.30;0.00;;;16.80;47.80;;;;;;5082886;28;20040;-46
2021/11/28 06:37:39;;;;;;;0.20;0.00;;;16.80;47.80;;;;;;5101649;28;20040;-46
2021/11/28 06:40:39;;;;;;;1.17;0.00;;;16.80;47.90;;;;;;5086919;28;20470;-47
2021/11/28 06:43:12;;;;;;;0.77;0.55;;;16.80;47.90;;;;;;5095546;28;20047;-44
2021/11/28 06:45:39;;;;;;;0.25;0.08;;;16.80;48.00;;;;;;5076113;28;20036;-49
2021/11/28 06:48:07;;;;;;;0.77;0.20;;;16.80;48.00;;;;;;5070534;28;20404;-48
2021/11/28 06:50:49;;;;;;;0.10;0.00;;;16.80;48.10;;;;;;5087347;28;20108;-47
2021/11/28 06:53:21;;;;;;;1.75;0.00;;;16.80;48.20;;;;;;5071202;28;20422;-50
2021/11/28 06:56:21;;;;;;;0.80;0.00;;;16.80;48.20;;;;;;5087135;28;20571;-51
2021/11/28 06:58:50;;;;;;;0.52;0.00;;;16.80;48.20;;;;;;5066643;28;20111;-47
2021/11/28 07:01:17;;;;;;;0.50;0.30;;;16.80;48.10;;;;;;5087952;28;20127;-49
2021/11/28 07:03:57;;;;;;;1.15;0.20;;;16.80;48.10;;;;;;5109266;27;20127;-47
2021/11/28 07:06:44;;;;;;;0.30;0.00;;;16.80;48.10;;;;;;5087908;28;20043;-50
2021/11/28 07:09:12;;;;;;;1.02;0.00;;;16.80;48.10;;;;;;5072041;28;20147;-52
2021/11/28 07:11:41;;;;;;;1.08;0.00;;;16.80;48.00;;;;;;5055105;28;20131;-48
2021/11/28 07:14:08;;;;;;;0.80;0.10;;;16.80;48.00;;;;;;5069601;28;20051;-54
2021/11/28 07:16:35;;;;;;;0.00;0.00;;;16.80;48.00;;;;;;5070715;28;20076;-52
2021/11/28 07:19:02;;;;;;;2.20;0.00;;;16.80;48.00;;;;;;5092951;28;20040;-53
2021/11/28 07:21:49;;;;;;;1.55;0.00;;;16.80;48.60;;;;;;5024936;28;20720;-48
2021/11/28 07:24:16;;;;;;;2.90;0.05;;;16.90;49.00;;;;;;5025175;28;20128;-46
2021/11/28 07:26:46;;;;;;;3.60;0.00;;;17.10;49.10;;;;;;5046698;28;20238;-50
2021/11/28 07:29:13;;;;;;;0.52;0.00;;;17.20;49.10;;;;;;5046615;28;20040;-46
2021/11/28 07:31:40;;;;;;;1.38;0.13;;;17.30;48.90;;;;;;5032855;28;20152;-46
2021/11/28 07:34:10;;;;;;;4.95;0.03;;;17.40;48.70;;;;;;5033355;28;20736;-45
2021/11/28 07:36:56;;;;;;;1.75;0.00;;;17.50;48.60;;;;;;5055206;28;20414;-48
2021/11/28 07:39:23;;;;;;;0.08;0.00;;;17.60;48.30;;;;;;5039528;28;20175;-47
2021/11/28 07:41:53;;;;;;;0.90;0.00;;;17.70;48.20;;;;;;5023133;28;21416;-46
2021/11/28 07:44:36;;;;;;;1.10;0.00;;;17.70;48.00;;;;;;5052559;28;20041;-48
2021/11/28 07:47:32;;;;;;;1.85;0.00;;;17.80;47.90;;;;;;5048005;28;20040;-47
2021/11/28 07:50:22;;;;;;;0.45;0.00;;;17.80;47.70;;;;;;5041997;28;20056;-53
2021/11/28 07:52:50;;;;;;;1.30;0.10;;;17.90;48.20;;;;;;5049450;28;20044;-50
2021/11/28 07:55:22;;;;;;;2.55;0.93;;;17.90;47.50;;;;;;5032805;28;20045;-49
2021/11/28 07:58:01;;;;;;;1.35;0.00;;;18.00;47.40;;;;;;5048146;28;20041;-51
2021/11/28 08:00:37;;;;;;;0.05;0.00;;;18.00;47.20;;;;;;5059573;28;20043;-48
2021/11/28 08:03:19;;;;;;;0.90;0.00;;;18.00;47.10;;;;;;5071010;28;20044;-52
2021/11/28 08:06:04;;;;;;;0.90;0.00;;;18.10;47.10;;;;;;5083936;28;20036;-49
2021/11/28 08:08:49;;;;;;;0.10;0.00;;;18.10;47.00;;;;;;5067887;28;20040;-50
2021/11/28 08:11:27;;;;;;;0.10;0.10;;;18.10;47.00;;;;;;5069439;28;20080;-48
2021/11/28 08:13:55;;;;;;;0.03;0.00;;;18.20;46.90;;;;;;5080724;28;20037;-48
2021/11/28 08:16:22;;;;;;;0.50;0.10;;;18.20;46.80;;;;;;5084430;28;20118;-49
2021/11/28 08:18:49;;;;;;;1.38;0.10;;;18.20;46.70;;;;;;5085842;28;20048;-46
2021/11/28 08:21:16;;;;;;;1.30;0.00;;;18.20;46.70;;;;;;5068599;28;20044;-47
2021/11/28 08:23:43;;;;;;;0.20;0.05;;;18.20;46.60;;;;;;5084457;28;20040;-47
2021/11/28 08:26:11;;;;;;;0.10;0.00;;;18.30;46.70;;;;;;5087391;28;20063;-51
2021/11/28 08:28:38;;;;;;;0.10;0.10;;;18.30;46.70;;;;;;5084443;28;20123;-46
2021/11/28 08:31:07;;;;;;;0.55;0.45;;;18.30;46.60;;;;;;5091645;28;20090;-48
2021/11/28 08:33:43;;;;;;;0.25;0.00;;;18.40;46.60;;;;;;5084823;28;20036;-49
2021/11/28 08:36:39;;;;;;;0.75;0.00;;;18.40;46.50;;;;;;5074779;28;20155;-48
2021/11/28 08:39:06;;;;;;;3.60;0.10;;;18.40;46.50;;;;;;5091210;28;20130;-51
2021/11/28 08:41:34;;;;;;;1.45;0.10;;;18.40;46.40;;;;;;5094184;28;20036;-54
2021/11/28 08:44:01;;;;;;;5.55;0.30;;;18.40;46.30;;;;;;5085400;28;20040;-44
2021/11/28 08:46:30;;;;;;;3.53;0.10;;;18.40;48.00;;;;;;5087936;28;20051;-48
2021/11/28 08:48:58;;;;;;;14.82;1.52;;;18.40;49.40;;;;;;5089930;28;20050;-48
2021/11/28 08:51:26;;;;;;;8.07;0.40;;;18.40;50.20;;;;;;5086490;28;20082;-45
2021/11/28 08:53:54;;;;;;;5.78;0.60;;;18.40;50.90;;;;;;5084871;28;20549;-48
2021/11/28 08:56:23;;;;;;;8.55;0.63;;;18.40;51.30;;;;;;5083892;28;20039;-46
2021/11/28 08:58:50;;;;;;;17.15;1.33;;;18.30;51.50;;;;;;5080047;28;20032;-46
2021/11/28 09:01:18;;;;;;;4.38;0.55;;;18.20;51.80;;;;;;5090223;28;20393;-46
2021/11/28 09:03:47;;;;;;;6.28;0.20;;;18.10;52.10;;;;;;5085865;28;20068;-46
2021/11/28 09:06:14;;;;;;;15.23;1.02;;;18.10;52.40;;;;;;5091078;28;20031;-46
2021/11/28 09:08:41;;;;;;;5.25;0.30;;;18.00;52.60;;;;;;5094142;28;20500;-47
2021/11/28 09:11:09;;;;;;;3.47;0.13;;;18.00;52.80;;;;;;5067391;28;20051;-48
2021/11/28 09:13:37;;;;;;;5.68;0.77;;;18.00;52.90;;;;;;5084141;28;20048;-51
2021/11/28 09:16:06;;;;;;;4.45;0.68;;;17.90;53.00;;;;;;5094574;28;20040;-47
2021/11/28 09:18:36;;;;;;;7.22;1.45;;;17.90;53.00;;;;;;5087867;28;20051;-49
2021/11/28 09:21:04;;;;;;;4.22;0.00;;;17.80;53.10;;;;;;5074349;28;20040;-48
2021/11/28 09:26:16;;;;;;;8.10;0.63;;;17.80;53.20;;;;;;5099981;28;20070;-46
2021/11/28 09:28:43;;;;;;;2.50;0.10;;;17.70;53.20;;;;;;5084874;28;20044;-47
2021/11/28 09:31:11;;;;;;;2.33;0.30;;;17.70;53.80;;;;;;5090878;28;20051;-47
2021/11/28 09:33:39;;;;;;;5.13;0.20;;;17.70;53.30;;;;;;5093492;28;20077;-50
2021/11/28 09:36:08;;;;;;;3.75;0.20;;;17.70;53.20;;;;;;5091343;28;20090;-46
2021/11/28 09:38:35;;;;;;;5.50;0.30;;;17.60;53.80;;;;;;5088456;28;20047;-44
2021/11/28 09:41:06;;;;;;;1.45;0.10;;;17.60;53.10;;;;;;5082778;28;20033;-46
2021/11/28 09:43:36;;;;;;;1.65;0.32;;;17.60;53.00;;;;;;5099621;28;20074;-47
2021/11/28 09:46:04;;;;;;;8.70;0.30;;;17.60;52.90;;;;;;5086015;28;20036;-51
2021/11/28 09:48:33;;;;;;;2.05;0.10;;;17.50;52.80;;;;;;5099802;28;20047;-47
2021/11/28 09:51:02;;;;;;;0.55;0.10;;;17.50;52.80;;;;;;5096776;28;20134;-50
2021/11/28 09:53:32;;;;;;;2.50;0.32;;;17.50;52.70;;;;;;5099734;28;20450;-46
2021/11/28 09:55:59;;;;;;;0.38;0.00;;;17.50;52.70;;;;;;5090594;28;20039;-46
2021/11/28 09:58:27;;;;;;;6.70;0.50;;;17.50;52.60;;;;;;5104123;28;20051;-49
2021/11/28 10:00:56;;;;;;;4.68;0.10;;;17.50;52.60;;;;;;5091575;28;20535;-50
2021/11/28 10:03:23;;;;;;;1.85;0.38;;;17.40;52.50;;;;;;5087608;28;20048;-50
2021/11/28 10:05:51;;;;;;;1.75;0.20;;;17.40;52.50;;;;;;5091236;28;20092;-45
2021/11/28 10:08:20;;;;;;;1.85;0.10;;;17.40;52.40;;;;;;5100997;28;20101;-45
2021/11/28 10:11:24;;;;;;;1.35;0.15;;;17.40;52.40;;;;;;5086376;28;20036;-48
2021/11/28 10:13:54;;;;;;;0.93;0.00;;;17.40;52.40;;;;;;5087415;28;20067;-44
2021/11/28 10:16:22;;;;;;;2.22;0.10;;;17.40;52.40;;;;;;5089395;28;20046;-45
2021/11/28 10:18:49;;;;;;;0.68;0.10;;;17.40;52.40;;;;;;5093079;28;20048;-45
2021/11/28 10:21:17;;;;;;;1.65;0.10;;;17.40;52.30;;;;;;5089418;28;20044;-46
2021/11/28 10:24:09;;;;;;;2.05;0.10;;;17.40;52.20;;;;;;5094237;28;20040;-45
2021/11/28 10:26:53;;;;;;;0.10;0.05;;;17.40;52.10;;;;;;5097963;28;20039;-47
2021/11/28 10:29:21;;;;;;;1.10;0.30;;;17.40;52.00;;;;;;5082721;28;20112;-48
2021/11/28 10:31:50;;;;;;;1.98;0.00;;;17.30;52.00;;;;;;5086609;28;20059;-44
2021/11/28 10:34:19;;;;;;;2.10;0.10;;;17.30;51.90;;;;;;5089219;28;20146;-50
2021/11/28 10:36:47;;;;;;;0.77;0.10;;;17.30;51.80;;;;;;5090545;28;20072;-46
2021/11/28 10:39:17;;;;;;;1.35;0.00;;;17.30;51.80;;;;;;5092492;28;20044;-47
2021/11/28 10:41:51;;;;;;;1.73;0.00;;;17.30;51.70;;;;;;5089623;28;20035;-49
2021/11/28 10:44:21;;;;;;;0.75;0.30;;;17.30;51.70;;;;;;5100471;28;20048;-47
2021/11/28 10:46:48;;;;;;;0.30;0.00;;;17.30;51.60;;;;;;5088935;28;20040;-46
2021/11/28 10:49:18;;;;;;;1.35;0.10;;;17.30;51.50;;;;;;5093011;28;20462;-46
2021/11/28 10:51:47;;;;;;;0.55;0.10;;;17.30;51.50;;;;;;5098514;28;20046;-43
2021/11/28 10:54:25;;;;;;;0.50;0.10;;;17.30;51.40;;;;;;5092570;28;20048;-52
2021/11/28 10:57:14;;;;;;;1.77;0.00;;;17.30;51.40;;;;;;5095747;28;20061;-44
2021/11/28 10:59:45;;;;;;;1.25;0.10;;;17.30;51.40;;;;;;5096493;28;20035;-44
2021/11/28 11:02:21;;;;;;;0.47;0.00;;;17.20;51.30;;;;;;5100072;28;20384;-47
2021/11/28 11:04:49;;;;;;;1.50;0.10;;;17.20;51.20;;;;;;5083344;28;20052;-44
2021/11/28 11:07:17;;;;;;;0.82;0.13;;;17.20;51.20;;;;;;5092785;28;20423;-48
2021/11/28 11:09:46;;;;;;;1.27;0.45;;;17.20;51.10;;;;;;5097312;28;20468;-49
2021/11/28 11:12:21;;;;;;;1.85;0.10;;;17.20;51.10;;;;;;5092283;28;20040;-48
2021/11/28 11:14:48;;;;;;;0.93;0.20;;;17.20;51.10;;;;;;5090671;28;20046;-47
2021/11/28 11:17:16;;;;;;;0.10;0.00;;;17.20;51.00;;;;;;5088654;28;20109;-45
2021/11/28 11:19:46;;;;;;;2.22;0.10;;;17.20;51.00;;;;;;5101144;28;20043;-44
2021/11/28 11:22:18;;;;;;;0.93;0.65;;;17.20;50.90;;;;;;5086790;28;20055;-47
2021/11/28 11:24:52;;;;;;;2.40;0.00;;;17.20;50.80;;;;;;5101670;28;20048;-44
2021/11/28 11:27:23;;;;;;;0.13;0.00;;;17.20;50.80;;;;;;5091469;28;20052;-46
2021/11/28 11:29:53;;;;;;;0.38;0.00;;;17.20;50.70;;;;;;5086612;28;20461;-45
2021/11/28 11:32:21;;;;;;;1.58;0.00;;;17.20;50.70;;;;;;5097451;28;20047;-47
2021/11/28 11:34:54;;;;;;;0.95;0.10;;;17.20;50.60;;;;;;5080176;28;20128;-47
2021/11/28 11:37:24;;;;;;;0.85;0.10;;;17.20;50.60;;;;;;5084172;28;20407;-46
2021/11/28 11:39:53;;;;;;;1.10;0.00;;;17.20;50.50;;;;;;5108718;27;20043;-45
2021/11/28 11:42:24;;;;;;;1.42;0.00;;;17.20;50.50;;;;;;5094188;28;20521;-50
2021/11/28 11:44:51;;;;;;;0.68;0.08;;;17.30;50.50;;;;;;5095136;28;20639;-49
2021/11/28 11:47:20;;;;;;;1.75;0.00;;;17.20;50.40;;;;;;5088357;28;20050;-46
2021/11/28 11:49:48;;;;;;;4.68;0.20;;;17.20;50.40;;;;;;5081042;28;20512;-48
2021/11/28 11:52:16;;;;;;;0.55;0.00;;;17.20;50.40;;;;;;5099395;28;20039;-44
2021/11/28 11:54:47;;;;;;;3.63;0.10;;;17.30;50.40;;;;;;5076572;28;20048;-49
2021/11/28 11:57:19;;;;;;;0.60;0.40;;;17.30;50.40;;;;;;5086476;28;20047;-48
2021/11/28 12:00:08;;;;;;;0.10;0.10;;;17.30;50.40;;;;;;5088565;28;20527;-44
2021/11/28 12:02:44;;;;;;;0.15;0.00;;;17.30;50.30;;;;;;5095183;28;20123;-46
2021/11/28 12:05:33;;;;;;;0.25;0.03;;;17.30;50.30;;;;;;5079253;28;20592;-48
2021/11/28 12:08:08;;;;;;;0.20;0.20;;;17.30;50.10;;;;;;5078204;28;20050;-49
2021/11/28 12:10:38;;;;;;;0.40;0.30;;;17.30;50.10;;;;;;5100464;28;20054;-46
2021/11/28 12:13:07;;;;;;;0.73;0.10;;;17.30;50.10;;;;;;5092710;28;20923;-51
2021/11/28 12:15:37;;;;;;;0.10;0.00;;;17.30;49.90;;;;;;5090316;28;20076;-46
2021/11/28 12:18:07;;;;;;;0.57;0.05;;;17.30;49.80;;;;;;5090772;28;20781;-45
2021/11/28 12:20:58;;;;;;;1.42;0.20;;;17.30;49.80;;;;;;5096584;28;20089;-50
2021/11/28 12:23:59;;;;;;;0.30;0.30;;;17.30;49.60;;;;;;5084712;28;20048;-47
2021/11/28 12:26:42;;;;;;;0.93;0.10;;;17.30;49.60;;;;;;5084685;28;20680;-46
2021/11/28 12:29:38;;;;;;;0.20;0.10;;;17.30;49.60;;;;;;5098722;28;21144;-45
2021/11/28 12:32:23;;;;;;;1.08;0.20;;;17.30;49.50;;;;;;5087031;28;20116;-47
2021/11/28 12:34:54;;;;;;;2.03;0.35;;;17.40;49.40;;;;;;5078310;28;20040;-50
2021/11/28 12:37:25;;;;;;;0.65;0.10;;;17.40;49.30;;;;;;5095171;28;20051;-47
2021/11/28 12:39:54;;;;;;;0.60;0.10;;;17.40;49.30;;;;;;5090909;28;20063;-47
2021/11/28 12:42:23;;;;;;;1.55;0.20;;;17.40;49.20;;;;;;5077446;28;20048;-48
2021/11/28 12:45:04;;;;;;;0.63;0.25;;;17.40;49.00;;;;;;5087518;28;20048;-47
2021/11/28 12:47:35;;;;;;;1.08;0.20;;;17.50;48.80;;;;;;5091818;28;20032;-46
2021/11/28 12:50:05;;;;;;;3.13;0.30;;;17.50;48.80;;;;;;5087888;28;20066;-46
2021/11/28 12:52:39;;;;;;;1.08;0.10;;;17.50;48.80;;;;;;5102722;28;20575;-46
2021/11/28 12:55:22;;;;;;;0.47;0.15;;;17.50;49.30;;;;;;5101921;28;20043;-46
2021/11/28 12:58:07;;;;;;;1.08;0.13;;;17.50;49.10;;;;;;5091259;28;20463;-51
2021/11/28 13:00:37;;;;;;;4.95;1.27;;;17.60;48.40;;;;;;5090312;28;20048;-48
2021/11/28 13:05:58;;;;;;;3.38;0.43;;;17.60;48.40;;;;;;5099084;27;20803;-50
2021/11/28 13:08:33;;;;;;;0.85;0.28;;;17.60;48.30;;;;;;5082423;28;20531;-50
2021/11/28 13:11:15;;;;;;;0.55;0.28;;;17.60;48.20;;;;;;5082570;28;20028;-44
2021/11/28 13:13:45;;;;;;;1.15;0.10;;;17.70;48.10;;;;;;5080932;28;20063;-45